sensor_id;sensor_type;location;lat;lon;timestamp;P1;durP1;ratioP1;P2;durP2;ratioP2
55346;SDS011;41218;55.700;38.270;2022-08-21T00:08:20;32.25;;;18.15;;
55346;SDS011;41218;55.700;38.270;2022-08-21T00:19:38;29.27;;;16.73;;
55346;SDS011;41218;55.700;38.270;2022-08-21T00:24:48;31.27;;;19.20;;
55346;SDS011;41218;55.700;38.270;2022-08-21T00:37:18;37.97;;;21.65;;
55346;SDS011;41218;55.700;38.270;2022-08-21T00:42:26;44.65;;;26.05;;
55346;SDS011;41218;55.700;38.270;2022-08-21T01:05:54;48.67;;;28.08;;
55346;SDS011;41218;55.700;38.270;2022-08-21T01:11:03;49.90;;;28.70;;
55346;SDS011;41218;55.700;38.270;2022-08-21T01:17:28;55.20;;;30.38;;
55346;SDS011;41218;55.700;38.270;2022-08-21T01:22:42;52.33;;;29.48;;
55346;SDS011;41218;55.700;38.270;2022-08-21T01:27:43;56.33;;;32.17;;
55346;SDS011;41218;55.700;38.270;2022-08-21T01:33:47;56.92;;;31.08;;
55346;SDS011;41218;55.700;38.270;2022-08-21T01:39:34;53.85;;;31.67;;
55346;SDS011;41218;55.700;38.270;2022-08-21T01:50:47;59.40;;;33.42;;
55346;SDS011;41218;55.700;38.270;2022-08-21T01:56:14;64.60;;;36.15;;
55346;SDS011;41218;55.700;38.270;2022-08-21T02:01:23;59.58;;;32.97;;
55346;SDS011;41218;55.700;38.270;2022-08-21T02:25:46;56.85;;;33.25;;
55346;SDS011;41218;55.700;38.270;2022-08-21T02:32:02;63.80;;;34.53;;
55346;SDS011;41218;55.700;38.270;2022-08-21T02:44:21;62.20;;;35.15;;
55346;SDS011;41218;55.700;38.270;2022-08-21T02:56:34;62.97;;;36.53;;
55346;SDS011;41218;55.700;38.270;2022-08-21T03:01:49;63.85;;;35.22;;
55346;SDS011;41218;55.700;38.270;2022-08-21T03:25:47;73.63;;;38.67;;
55346;SDS011;41218;55.700;38.270;2022-08-21T03:37:13;65.25;;;38.63;;
55346;SDS011;41218;55.700;38.270;2022-08-21T03:43:06;75.43;;;40.78;;
55346;SDS011;41218;55.700;38.270;2022-08-21T03:48:22;76.40;;;42.08;;
55346;SDS011;41218;55.700;38.270;2022-08-21T03:53:25;76.63;;;41.88;;
55346;SDS011;41218;55.700;38.270;2022-08-21T03:58:27;78.20;;;44.85;;
55346;SDS011;41218;55.700;38.270;2022-08-21T04:03:31;75.68;;;43.78;;
55346;SDS011;41218;55.700;38.270;2022-08-21T04:08:36;68.65;;;39.88;;
55346;SDS011;41218;55.700;38.270;2022-08-21T04:13:39;86.90;;;47.00;;
55346;SDS011;41218;55.700;38.270;2022-08-21T04:18:46;86.50;;;47.15;;
55346;SDS011;41218;55.700;38.270;2022-08-21T04:23:47;84.00;;;46.60;;
55346;SDS011;41218;55.700;38.270;2022-08-21T04:29:01;81.72;;;45.85;;
55346;SDS011;41218;55.700;38.270;2022-08-21T04:34:33;82.47;;;45.85;;
55346;SDS011;41218;55.700;38.270;2022-08-21T04:39:42;81.40;;;45.00;;
55346;SDS011;41218;55.700;38.270;2022-08-21T04:56:06;68.80;;;40.22;;
55346;SDS011;41218;55.700;38.270;2022-08-21T05:01:50;65.53;;;39.20;;
55346;SDS011;41218;55.700;38.270;2022-08-21T05:06:54;69.30;;;40.07;;
55346;SDS011;41218;55.700;38.270;2022-08-21T05:17:13;70.68;;;38.78;;
55346;SDS011;41218;55.700;38.270;2022-08-21T05:22:27;67.97;;;38.85;;
55346;SDS011;41218;55.700;38.270;2022-08-21T05:27:28;63.90;;;38.33;;
55346;SDS011;41218;55.700;38.270;2022-08-21T05:32:29;63.85;;;39.45;;
55346;SDS011;41218;55.700;38.270;2022-08-21T05:37:31;68.05;;;39.75;;
55346;SDS011;41218;55.700;38.270;2022-08-21T05:42:35;73.40;;;41.17;;
55346;SDS011;41218;55.700;38.270;2022-08-21T05:47:39;64.97;;;38.15;;
55346;SDS011;41218;55.700;38.270;2022-08-21T05:52:47;63.30;;;37.83;;
55346;SDS011;41218;55.700;38.270;2022-08-21T06:02:48;63.57;;;37.90;;
55346;SDS011;41218;55.700;38.270;2022-08-21T06:07:50;70.63;;;38.72;;
55346;SDS011;41218;55.700;38.270;2022-08-21T06:17:55;58.70;;;36.50;;
55346;SDS011;41218;55.700;38.270;2022-08-21T06:22:56;62.88;;;38.35;;
55346;SDS011;41218;55.700;38.270;2022-08-21T06:28:14;60.70;;;36.95;;
55346;SDS011;41218;55.700;38.270;2022-08-21T06:33:15;58.17;;;35.38;;
55346;SDS011;41218;55.700;38.270;2022-08-21T06:38:16;61.05;;;38.22;;
55346;SDS011;41218;55.700;38.270;2022-08-21T06:43:16;62.05;;;37.42;;
55346;SDS011;41218;55.700;38.270;2022-08-21T06:48:17;60.50;;;36.25;;
55346;SDS011;41218;55.700;38.270;2022-08-21T06:53:19;58.33;;;34.80;;
55346;SDS011;41218;55.700;38.270;2022-08-21T06:58:20;59.55;;;36.25;;
55346;SDS011;41218;55.700;38.270;2022-08-21T07:03:23;54.20;;;34.45;;
55346;SDS011;41218;55.700;38.270;2022-08-21T07:08:28;56.45;;;35.22;;
55346;SDS011;41218;55.700;38.270;2022-08-21T07:13:29;54.17;;;35.33;;
55346;SDS011;41218;55.700;38.270;2022-08-21T07:18:30;54.88;;;34.38;;
55346;SDS011;41218;55.700;38.270;2022-08-21T07:23:38;52.60;;;34.85;;
55346;SDS011;41218;55.700;38.270;2022-08-21T07:29:10;53.53;;;33.30;;
55346;SDS011;41218;55.700;38.270;2022-08-21T07:34:11;52.83;;;33.40;;
55346;SDS011;41218;55.700;38.270;2022-08-21T07:39:15;60.88;;;35.60;;
55346;SDS011;41218;55.700;38.270;2022-08-21T07:44:31;55.30;;;34.55;;
55346;SDS011;41218;55.700;38.270;2022-08-21T07:49:45;53.10;;;34.65;;
55346;SDS011;41218;55.700;38.270;2022-08-21T07:54:46;58.80;;;35.85;;
55346;SDS011;41218;55.700;38.270;2022-08-21T07:59:47;51.65;;;33.65;;
55346;SDS011;41218;55.700;38.270;2022-08-21T08:04:50;50.22;;;34.03;;
55346;SDS011;41218;55.700;38.270;2022-08-21T08:09:54;51.20;;;33.72;;
55346;SDS011;41218;55.700;38.270;2022-08-21T08:14:58;52.97;;;34.05;;
55346;SDS011;41218;55.700;38.270;2022-08-21T08:20:00;50.67;;;33.22;;
55346;SDS011;41218;55.700;38.270;2022-08-21T08:25:01;49.53;;;32.97;;
55346;SDS011;41218;55.700;38.270;2022-08-21T08:30:03;52.30;;;34.00;;
55346;SDS011;41218;55.700;38.270;2022-08-21T08:35:06;52.15;;;35.00;;
55346;SDS011;41218;55.700;38.270;2022-08-21T08:40:14;51.10;;;34.42;;
55346;SDS011;41218;55.700;38.270;2022-08-21T08:45:44;53.08;;;35.10;;
55346;SDS011;41218;55.700;38.270;2022-08-21T08:50:56;51.50;;;32.38;;
55346;SDS011;41218;55.700;38.270;2022-08-21T08:55:58;48.40;;;30.80;;
55346;SDS011;41218;55.700;38.270;2022-08-21T09:01:03;49.65;;;32.65;;
55346;SDS011;41218;55.700;38.270;2022-08-21T09:06:19;52.28;;;33.90;;
55346;SDS011;41218;55.700;38.270;2022-08-21T09:11:38;53.47;;;32.38;;
55346;SDS011;41218;55.700;38.270;2022-08-21T09:16:47;44.65;;;30.02;;
55346;SDS011;41218;55.700;38.270;2022-08-21T09:27:19;39.28;;;25.63;;
55346;SDS011;41218;55.700;38.270;2022-08-21T09:32:29;35.15;;;24.33;;
55346;SDS011;41218;55.700;38.270;2022-08-21T09:37:33;38.92;;;26.05;;
55346;SDS011;41218;55.700;38.270;2022-08-21T09:43:01;35.85;;;25.88;;
55346;SDS011;41218;55.700;38.270;2022-08-21T09:48:11;38.13;;;27.20;;
55346;SDS011;41218;55.700;38.270;2022-08-21T09:58:33;38.45;;;25.92;;
55346;SDS011;41218;55.700;38.270;2022-08-21T10:03:41;40.63;;;25.77;;
55346;SDS011;41218;55.700;38.270;2022-08-21T10:08:42;38.67;;;26.80;;
55346;SDS011;41218;55.700;38.270;2022-08-21T10:19:14;42.08;;;29.48;;
55346;SDS011;41218;55.700;38.270;2022-08-21T10:40:29;52.78;;;35.92;;
55346;SDS011;41218;55.700;38.270;2022-08-21T10:45:49;52.80;;;34.97;;
55346;SDS011;41218;55.700;38.270;2022-08-21T10:56:43;59.63;;;37.55;;
55346;SDS011;41218;55.700;38.270;2022-08-21T11:01:54;48.85;;;34.97;;
55346;SDS011;41218;55.700;38.270;2022-08-21T11:07:06;49.47;;;34.13;;
55346;SDS011;41218;55.700;38.270;2022-08-21T11:12:46;47.05;;;34.50;;
55346;SDS011;41218;55.700;38.270;2022-08-21T11:17:56;51.10;;;35.40;;
55346;SDS011;41218;55.700;38.270;2022-08-21T11:23:15;40.30;;;27.17;;
55346;SDS011;41218;55.700;38.270;2022-08-21T11:28:54;31.52;;;23.23;;
55346;SDS011;41218;55.700;38.270;2022-08-21T11:34:09;29.38;;;21.13;;
55346;SDS011;41218;55.700;38.270;2022-08-21T11:39:35;26.42;;;15.88;;
55346;SDS011;41218;55.700;38.270;2022-08-21T11:50:07;18.90;;;12.70;;
55346;SDS011;41218;55.700;38.270;2022-08-21T12:00:19;18.83;;;12.07;;
55346;SDS011;41218;55.700;38.270;2022-08-21T12:16:27;21.80;;;14.07;;
55346;SDS011;41218;55.700;38.270;2022-08-21T12:21:33;23.10;;;14.48;;
55346;SDS011;41218;55.700;38.270;2022-08-21T12:26:56;20.98;;;16.05;;
55346;SDS011;41218;55.700;38.270;2022-08-21T12:32:41;26.05;;;19.25;;
55346;SDS011;41218;55.700;38.270;2022-08-21T12:38:01;29.45;;;20.92;;
55346;SDS011;41218;55.700;38.270;2022-08-21T12:43:33;32.40;;;22.07;;
55346;SDS011;41218;55.700;38.270;2022-08-21T12:48:43;32.38;;;22.02;;
55346;SDS011;41218;55.700;38.270;2022-08-21T12:53:50;37.45;;;26.73;;
55346;SDS011;41218;55.700;38.270;2022-08-21T12:59:11;42.78;;;29.35;;
55346;SDS011;41218;55.700;38.270;2022-08-21T13:04:16;44.10;;;32.17;;
55346;SDS011;41218;55.700;38.270;2022-08-21T13:09:23;50.28;;;36.58;;
55346;SDS011;41218;55.700;38.270;2022-08-21T13:14:37;54.78;;;38.47;;
55346;SDS011;41218;55.700;38.270;2022-08-21T13:19:42;58.38;;;40.90;;
55346;SDS011;41218;55.700;38.270;2022-08-21T13:24:52;71.45;;;46.70;;
55346;SDS011;41218;55.700;38.270;2022-08-21T13:30:01;71.28;;;52.58;;
55346;SDS011;41218;55.700;38.270;2022-08-21T13:35:17;75.65;;;55.60;;
55346;SDS011;41218;55.700;38.270;2022-08-21T13:45:32;80.30;;;57.00;;
55346;SDS011;41218;55.700;38.270;2022-08-21T13:50:33;76.80;;;57.08;;
55346;SDS011;41218;55.700;38.270;2022-08-21T13:55:42;77.20;;;56.87;;
55346;SDS011;41218;55.700;38.270;2022-08-21T14:00:50;79.15;;;56.70;;
55346;SDS011;41218;55.700;38.270;2022-08-21T14:05:51;78.30;;;54.85;;
55346;SDS011;41218;55.700;38.270;2022-08-21T14:10:52;74.68;;;52.05;;
55346;SDS011;41218;55.700;38.270;2022-08-21T14:15:54;68.68;;;50.72;;
55346;SDS011;41218;55.700;38.270;2022-08-21T14:21:05;69.80;;;48.83;;
55346;SDS011;41218;55.700;38.270;2022-08-21T14:26:09;65.43;;;48.15;;
55346;SDS011;41218;55.700;38.270;2022-08-21T14:31:11;59.97;;;46.10;;
55346;SDS011;41218;55.700;38.270;2022-08-21T14:36:14;59.72;;;42.80;;
55346;SDS011;41218;55.700;38.270;2022-08-21T14:41:19;60.15;;;42.38;;
55346;SDS011;41218;55.700;38.270;2022-08-21T14:46:24;52.35;;;39.95;;
55346;SDS011;41218;55.700;38.270;2022-08-21T14:51:27;56.08;;;40.58;;
55346;SDS011;41218;55.700;38.270;2022-08-21T14:56:28;62.20;;;42.63;;
55346;SDS011;41218;55.700;38.270;2022-08-21T15:01:28;58.53;;;44.95;;
55346;SDS011;41218;55.700;38.270;2022-08-21T15:06:29;60.35;;;46.60;;
55346;SDS011;41218;55.700;38.270;2022-08-21T15:11:30;60.83;;;47.63;;
55346;SDS011;41218;55.700;38.270;2022-08-21T15:16:33;68.70;;;49.53;;
55346;SDS011;41218;55.700;38.270;2022-08-21T15:21:35;67.47;;;51.17;;
55346;SDS011;41218;55.700;38.270;2022-08-21T15:26:36;70.95;;;51.38;;
55346;SDS011;41218;55.700;38.270;2022-08-21T15:31:37;68.97;;;51.08;;
55346;SDS011;41218;55.700;38.270;2022-08-21T15:36:51;70.53;;;50.72;;
55346;SDS011;41218;55.700;38.270;2022-08-21T15:41:52;69.90;;;51.08;;
55346;SDS011;41218;55.700;38.270;2022-08-21T15:46:52;70.47;;;50.88;;
55346;SDS011;41218;55.700;38.270;2022-08-21T15:51:53;70.07;;;50.67;;
55346;SDS011;41218;55.700;38.270;2022-08-21T15:56:54;64.55;;;49.05;;
55346;SDS011;41218;55.700;38.270;2022-08-21T16:01:54;64.10;;;48.38;;
55346;SDS011;41218;55.700;38.270;2022-08-21T16:06:55;67.38;;;48.53;;
55346;SDS011;41218;55.700;38.270;2022-08-21T16:11:56;102.60;;;66.38;;
55346;SDS011;41218;55.700;38.270;2022-08-21T16:16:58;71.93;;;52.05;;
55346;SDS011;41218;55.700;38.270;2022-08-21T16:21:59;64.45;;;47.78;;
55346;SDS011;41218;55.700;38.270;2022-08-21T16:26:59;60.63;;;43.65;;
55346;SDS011;41218;55.700;38.270;2022-08-21T16:32:00;58.45;;;42.65;;
55346;SDS011;41218;55.700;38.270;2022-08-21T16:37:01;51.97;;;41.10;;
55346;SDS011;41218;55.700;38.270;2022-08-21T16:42:03;54.22;;;39.50;;
55346;SDS011;41218;55.700;38.270;2022-08-21T16:47:05;50.03;;;38.08;;
55346;SDS011;41218;55.700;38.270;2022-08-21T16:52:07;52.70;;;36.63;;
55346;SDS011;41218;55.700;38.270;2022-08-21T16:57:08;49.30;;;38.78;;
55346;SDS011;41218;55.700;38.270;2022-08-21T17:02:24;50.08;;;37.10;;
55346;SDS011;41218;55.700;38.270;2022-08-21T17:07:30;45.15;;;35.75;;
55346;SDS011;41218;55.700;38.270;2022-08-21T17:12:31;49.25;;;36.90;;
55346;SDS011;41218;55.700;38.270;2022-08-21T17:17:33;49.08;;;34.35;;
55346;SDS011;41218;55.700;38.270;2022-08-21T17:22:34;48.70;;;34.22;;
55346;SDS011;41218;55.700;38.270;2022-08-21T17:27:35;45.60;;;34.15;;
55346;SDS011;41218;55.700;38.270;2022-08-21T17:32:36;46.17;;;34.75;;
55346;SDS011;41218;55.700;38.270;2022-08-21T17:37:37;45.72;;;34.28;;
55346;SDS011;41218;55.700;38.270;2022-08-21T17:42:41;43.47;;;33.17;;
55346;SDS011;41218;55.700;38.270;2022-08-21T17:47:44;46.38;;;34.22;;
55346;SDS011;41218;55.700;38.270;2022-08-21T17:52:45;42.90;;;33.38;;
55346;SDS011;41218;55.700;38.270;2022-08-21T17:57:46;44.53;;;32.67;;
55346;SDS011;41218;55.700;38.270;2022-08-21T18:02:50;41.67;;;31.60;;
55346;SDS011;41218;55.700;38.270;2022-08-21T18:07:59;45.58;;;33.20;;
55346;SDS011;41218;55.700;38.270;2022-08-21T18:13:01;44.17;;;31.65;;
55346;SDS011;41218;55.700;38.270;2022-08-21T18:18:05;38.65;;;29.27;;
55346;SDS011;41218;55.700;38.270;2022-08-21T18:23:06;39.45;;;28.70;;
55346;SDS011;41218;55.700;38.270;2022-08-21T18:28:07;38.17;;;27.50;;
55346;SDS011;41218;55.700;38.270;2022-08-21T18:33:12;38.60;;;28.02;;
55346;SDS011;41218;55.700;38.270;2022-08-21T18:38:13;33.08;;;23.75;;
55346;SDS011;41218;55.700;38.270;2022-08-21T18:43:14;33.80;;;25.23;;
55346;SDS011;41218;55.700;38.270;2022-08-21T18:48:15;35.83;;;25.48;;
55346;SDS011;41218;55.700;38.270;2022-08-21T18:53:17;33.33;;;24.15;;
55346;SDS011;41218;55.700;38.270;2022-08-21T18:58:18;30.35;;;20.75;;
55346;SDS011;41218;55.700;38.270;2022-08-21T19:03:19;27.55;;;19.63;;
55346;SDS011;41218;55.700;38.270;2022-08-21T19:08:22;24.98;;;17.35;;
55346;SDS011;41218;55.700;38.270;2022-08-21T19:13:28;30.67;;;21.85;;
55346;SDS011;41218;55.700;38.270;2022-08-21T19:18:31;31.20;;;21.00;;
55346;SDS011;41218;55.700;38.270;2022-08-21T19:23:34;24.20;;;17.10;;
55346;SDS011;41218;55.700;38.270;2022-08-21T19:28:39;24.92;;;16.13;;
55346;SDS011;41218;55.700;38.270;2022-08-21T19:33:43;24.30;;;17.60;;
55346;SDS011;41218;55.700;38.270;2022-08-21T19:38:47;24.88;;;17.95;;
55346;SDS011;41218;55.700;38.270;2022-08-21T19:43:49;23.73;;;17.75;;
55346;SDS011;41218;55.700;38.270;2022-08-21T19:48:54;25.48;;;18.20;;
55346;SDS011;41218;55.700;38.270;2022-08-21T19:53:55;25.70;;;18.20;;
55346;SDS011;41218;55.700;38.270;2022-08-21T19:58:56;24.02;;;17.15;;
55346;SDS011;41218;55.700;38.270;2022-08-21T20:03:58;21.08;;;16.65;;
55346;SDS011;41218;55.700;38.270;2022-08-21T20:08:58;25.10;;;17.55;;
55346;SDS011;41218;55.700;38.270;2022-08-21T20:13:59;22.30;;;16.48;;
55346;SDS011;41218;55.700;38.270;2022-08-21T20:19:01;22.88;;;15.18;;
55346;SDS011;41218;55.700;38.270;2022-08-21T20:24:03;22.42;;;16.23;;
55346;SDS011;41218;55.700;38.270;2022-08-21T20:29:04;25.27;;;16.92;;
55346;SDS011;41218;55.700;38.270;2022-08-21T20:34:06;25.52;;;16.67;;
55346;SDS011;41218;55.700;38.270;2022-08-21T20:39:06;23.05;;;16.08;;
55346;SDS011;41218;55.700;38.270;2022-08-21T20:44:07;19.65;;;14.43;;
55346;SDS011;41218;55.700;38.270;2022-08-21T20:49:18;19.83;;;14.13;;
55346;SDS011;41218;55.700;38.270;2022-08-21T20:59:42;21.70;;;13.70;;
55346;SDS011;41218;55.700;38.270;2022-08-21T21:15:13;18.77;;;12.23;;
55346;SDS011;41218;55.700;38.270;2022-08-21T21:20:23;18.40;;;13.18;;
55346;SDS011;41218;55.700;38.270;2022-08-21T21:25:36;22.17;;;13.38;;
55346;SDS011;41218;55.700;38.270;2022-08-21T21:30:43;18.45;;;13.68;;
55346;SDS011;41218;55.700;38.270;2022-08-21T21:41:00;24.33;;;15.00;;
55346;SDS011;41218;55.700;38.270;2022-08-21T21:46:25;23.13;;;15.20;;
55346;SDS011;41218;55.700;38.270;2022-08-21T21:52:16;27.23;;;16.80;;
55346;SDS011;41218;55.700;38.270;2022-08-21T22:07:59;28.75;;;18.00;;
55346;SDS011;41218;55.700;38.270;2022-08-21T22:13:11;28.75;;;18.80;;
55346;SDS011;41218;55.700;38.270;2022-08-21T22:18:22;27.90;;;18.58;;
55346;SDS011;41218;55.700;38.270;2022-08-21T22:23:29;30.85;;;19.70;;
55346;SDS011;41218;55.700;38.270;2022-08-21T22:28:35;33.03;;;20.75;;
55346;SDS011;41218;55.700;38.270;2022-08-21T22:33:41;33.42;;;21.35;;
55346;SDS011;41218;55.700;38.270;2022-08-21T22:39:01;36.10;;;22.60;;
55346;SDS011;41218;55.700;38.270;2022-08-21T22:44:05;34.17;;;21.90;;
55346;SDS011;41218;55.700;38.270;2022-08-21T22:54:30;43.17;;;24.77;;
55346;SDS011;41218;55.700;38.270;2022-08-21T22:59:36;44.58;;;27.38;;
55346;SDS011;41218;55.700;38.270;2022-08-21T23:04:45;46.85;;;29.17;;
55346;SDS011;41218;55.700;38.270;2022-08-21T23:09:47;48.75;;;29.05;;
55346;SDS011;41218;55.700;38.270;2022-08-21T23:14:49;49.95;;;29.85;;
55346;SDS011;41218;55.700;38.270;2022-08-21T23:20:10;54.17;;;31.23;;
55346;SDS011;41218;55.700;38.270;2022-08-21T23:30:40;52.00;;;32.42;;
55346;SDS011;41218;55.700;38.270;2022-08-21T23:35:56;58.22;;;33.72;;
55346;SDS011;41218;55.700;38.270;2022-08-21T23:41:29;58.08;;;35.25;;
